Time;durP1;ratioP1;P1;durP2;ratioP2;P2;SDS_P1;SDS_P2;PMS_P1;PMS_P2;Temp;Humidity;BMP_temperature;BMP_pressure;BME280_temperature;BME280_humidity;BME280_pressure;Samples;Min_cycle;Max_cycle;Signal;HPM_P1;HPM_P2
2023/12/19 00:02:15;;;;;;;;;;;;;;;19.81;36.04;96819.41;10512772;28;1914;-54
2023/12/19 00:07:15;;;;;;;;;;;;;;;19.78;36.23;96809.38;10516565;28;2181;-54
2023/12/19 00:12:16;;;;;;;;;;;;;;;19.77;36.19;96787.53;10506803;28;2084;-54
2023/12/19 00:17:16;;;;;;;;;;;;;;;19.74;36.24;96779.34;10512352;28;2032;-54
2023/12/19 00:22:16;;;;;;;;;;;;;;;19.72;36.30;96761.13;10490348;28;2072;-54
2023/12/19 00:27:16;;;;;;;;;;;;;;;19.70;36.36;96754.56;10515354;28;1983;-55
2023/12/19 00:32:17;;;;;;;;;;;;;;;19.67;36.45;96755.84;10514928;28;2513;-55
2023/12/19 00:37:17;;;;;;;;;;;;;;;19.66;36.27;96775.25;10515489;28;1914;-55
2023/12/19 00:42:17;;;;;;;;;;;;;;;19.65;36.40;96793.94;10499275;28;5094;-56
2023/12/19 00:47:18;;;;;;;;;;;;;;;19.63;36.33;96769.69;10503318;28;2959;-56
2023/12/19 00:52:18;;;;;;;;;;;;;;;19.62;35.86;96770.75;10506740;28;2017;-53
2023/12/19 00:57:18;;;;;;;;;;;;;;;19.61;36.03;96779.66;10501833;28;2056;-55
2023/12/19 01:02:18;;;;;;;;;;;;;;;19.56;36.38;96779.63;10502077;28;2016;-55
2023/12/19 01:07:19;;;;;;;;;;;;;;;19.54;36.34;96784.31;10509697;28;2130;-54
2023/12/19 01:12:19;;;;;;;;;;;;;;;19.53;36.41;96790.59;10502757;28;1938;-54
2023/12/19 01:17:19;;;;;;;;;;;;;;;19.52;36.22;96802.16;10503306;28;2056;-55
2023/12/19 01:22:19;;;;;;;;;;;;;;;19.51;36.12;96796.13;10501977;28;1872;-55
2023/12/19 01:27:20;;;;;;;;;;;;;;;19.47;36.16;96803.66;10502382;28;2451;-53
2023/12/19 01:32:20;;;;;;;;;;;;;;;19.47;35.98;96795.78;10507833;28;2013;-54
2023/12/19 01:37:20;;;;;;;;;;;;;;;19.43;36.26;96802.56;10503513;28;2046;-55
2023/12/19 01:42:20;;;;;;;;;;;;;;;19.41;36.04;96799.38;10502648;28;5193;-54
2023/12/19 01:47:21;;;;;;;;;;;;;;;19.41;36.12;96799.38;10500439;28;3337;-55
2023/12/19 01:52:21;;;;;;;;;;;;;;;19.39;36.04;96784.91;10508325;28;1941;-55
2023/12/19 01:57:21;;;;;;;;;;;;;;;19.36;36.25;96801.94;10498534;28;1932;-54
2023/12/19 02:02:22;;;;;;;;;;;;;;;19.36;36.08;96795.88;10474405;28;2096;-55
2023/12/19 02:07:22;;;;;;;;;;;;;;;19.34;35.71;96775.09;10502918;28;2341;-54
2023/12/19 02:12:22;;;;;;;;;;;;;;;19.33;35.82;96757.72;10503202;28;1985;-54
2023/12/19 02:17:23;;;;;;;;;;;;;;;19.31;35.90;96738.72;10509551;28;2056;-54
2023/12/19 02:22:23;;;;;;;;;;;;;;;19.29;35.90;96732.13;10506660;28;2270;-53
2023/12/19 02:27:24;;;;;;;;;;;;;;;19.29;35.84;96738.19;10498595;28;1960;-52
2023/12/19 02:32:24;;;;;;;;;;;;;;;19.27;35.79;96734.19;10512957;28;1885;-55
2023/12/19 02:37:24;;;;;;;;;;;;;;;19.25;35.50;96712.59;10516118;28;1968;-53
2023/12/19 02:42:25;;;;;;;;;;;;;;;19.24;35.60;96724.19;10514515;28;2036;-55
2023/12/19 02:47:25;;;;;;;;;;;;;;;19.24;35.69;96724.97;10512078;28;1967;-55
2023/12/19 02:52:25;;;;;;;;;;;;;;;19.22;35.47;96728.88;10514122;28;2081;-54
2023/12/19 02:57:25;;;;;;;;;;;;;;;19.18;35.73;96731.19;10512915;28;1965;-55
2023/12/19 03:02:26;;;;;;;;;;;;;;;19.18;35.70;96730.41;10512007;28;1986;-51
2023/12/19 03:07:26;;;;;;;;;;;;;;;19.15;35.69;96729.03;10513840;28;2024;-52
2023/12/19 03:12:26;;;;;;;;;;;;;;;19.14;35.80;96745.84;10499171;28;2202;-54
2023/12/19 03:17:26;;;;;;;;;;;;;;;19.13;35.75;96738.19;10491966;28;2012;-55
2023/12/19 03:22:27;;;;;;;;;;;;;;;19.11;35.64;96741.06;10507374;28;2370;-56
2023/12/19 03:27:27;;;;;;;;;;;;;;;19.10;35.50;96731.56;10509332;28;1983;-56
2023/12/19 03:32:27;;;;;;;;;;;;;;;19.09;35.65;96708.19;10504887;28;1969;-55
2023/12/19 03:37:27;;;;;;;;;;;;;;;19.08;35.45;96681.09;10516772;28;2084;-53
2023/12/19 03:42:28;;;;;;;;;;;;;;;19.08;35.26;96682.94;10503060;28;5037;-54
2023/12/19 03:47:28;;;;;;;;;;;;;;;19.05;35.26;96676.34;10504536;28;1948;-55
2023/12/19 03:52:28;;;;;;;;;;;;;;;19.04;35.36;96672.09;10488315;28;1920;-52
2023/12/19 03:57:28;;;;;;;;;;;;;;;19.03;35.26;96661.84;10503693;28;2000;-56
2023/12/19 04:02:29;;;;;;;;;;;;;;;19.02;35.27;96658.41;10513171;28;2437;-52
2023/12/19 04:07:29;;;;;;;;;;;;;;;19.00;35.38;96673.63;10506357;28;2076;-52
2023/12/19 04:12:29;;;;;;;;;;;;;;;18.98;35.30;96669.66;10515822;28;2031;-55
2023/12/19 04:17:29;;;;;;;;;;;;;;;18.98;35.16;96662.56;10492613;28;2043;-54
2023/12/19 04:22:30;;;;;;;;;;;;;;;18.95;35.41;96665.69;10509584;28;1886;-54
2023/12/19 04:27:30;;;;;;;;;;;;;;;18.95;35.00;96664.88;10512655;28;2021;-54
2023/12/19 04:32:30;;;;;;;;;;;;;;;18.93;35.33;96670.38;10507773;28;2127;-56
2023/12/19 04:37:31;;;;;;;;;;;;;;;18.92;35.06;96657.50;10502262;28;2070;-54
2023/12/19 04:42:32;;;;;;;;;;;;;;;18.90;35.09;96655.09;10507771;28;5058;-54
2023/12/19 04:47:32;;;;;;;;;;;;;;;18.89;35.08;96653.50;10515877;28;2648;-54
2023/12/19 04:52:32;;;;;;;;;;;;;;;18.88;35.03;96651.91;10512072;28;1895;-54
2023/12/19 04:57:32;;;;;;;;;;;;;;;18.86;34.96;96643.47;10512512;28;2118;-55
2023/12/19 05:02:33;;;;;;;;;;;;;;;18.85;34.95;96636.66;10506366;28;1989;-54
2023/12/19 05:07:33;;;;;;;;;;;;;;;18.84;35.21;96637.66;10501008;28;2079;-54
2023/12/19 05:12:33;;;;;;;;;;;;;;;18.89;35.44;96626.44;10506205;28;2071;-53
2023/12/19 05:17:33;;;;;;;;;;;;;;;18.95;35.43;96630.72;10504428;28;2088;-55
2023/12/19 05:22:34;;;;;;;;;;;;;;;19.01;35.40;96635.81;10487041;28;1943;-53
2023/12/19 05:27:36;;;;;;;;;;;;;;;19.07;35.44;96624.34;10510431;28;2404;-54
2023/12/19 05:32:36;;;;;;;;;;;;;;;19.15;35.21;96612.59;10504764;28;2020;-53
2023/12/19 05:37:39;;;;;;;;;;;;;;;19.20;35.23;96613.47;10505549;28;2040;-53
2023/12/19 05:42:39;;;;;;;;;;;;;;;19.25;35.23;96604.84;10502850;28;5110;-54
2023/12/19 05:47:39;;;;;;;;;;;;;;;19.30;34.91;96603.09;10507444;28;1967;-53
2023/12/19 05:52:40;;;;;;;;;;;;;;;19.34;34.98;96612.09;10512801;28;1984;-54
2023/12/19 05:57:40;;;;;;;;;;;;;;;19.38;35.01;96615.03;10510154;28;2194;-54
2023/12/19 06:02:40;;;;;;;;;;;;;;;19.41;34.85;96610.06;10510718;28;2107;-52
2023/12/19 06:07:41;;;;;;;;;;;;;;;19.44;34.92;96606.97;10515174;28;2298;-52
2023/12/19 06:12:41;;;;;;;;;;;;;;;19.48;34.62;96602.00;10513202;28;2028;-54
2023/12/19 06:17:41;;;;;;;;;;;;;;;19.51;34.43;96598.09;10515565;28;2028;-54
2023/12/19 06:22:42;;;;;;;;;;;;;;;19.51;34.54;96600.72;10520549;28;2068;-54
2023/12/19 06:27:44;;;;;;;;;;;;;;;19.52;34.58;96599.66;10515522;28;2363;-52
2023/12/19 06:32:47;;;;;;;;;;;;;;;19.52;34.53;96592.56;10516198;28;2408;-52
2023/12/19 06:37:47;;;;;;;;;;;;;;;19.53;34.78;96603.91;10512180;28;2138;-53
2023/12/19 06:42:47;;;;;;;;;;;;;;;19.58;34.54;96601.34;10512945;28;5074;-53
2023/12/19 06:47:48;;;;;;;;;;;;;;;19.58;34.73;96583.69;10515094;28;1964;-52
2023/12/19 06:52:48;;;;;;;;;;;;;;;19.62;34.45;96569.00;10516313;28;1960;-52
2023/12/19 06:57:48;;;;;;;;;;;;;;;19.65;34.52;96562.47;10511770;28;2056;-52
2023/12/19 07:02:48;;;;;;;;;;;;;;;19.69;35.01;96574.09;10503958;28;2480;-55
2023/12/19 07:07:51;;;;;;;;;;;;;;;19.72;34.92;96568.34;10503067;28;1882;-53
2023/12/19 07:12:52;;;;;;;;;;;;;;;19.75;35.03;96565.19;10516895;28;2332;-53
2023/12/19 07:17:52;;;;;;;;;;;;;;;19.76;35.27;96572.88;10494520;28;2138;-53
2023/12/19 07:22:52;;;;;;;;;;;;;;;19.78;35.11;96562.09;10517809;28;1951;-55
2023/12/19 07:27:52;;;;;;;;;;;;;;;19.81;35.08;96553.69;10510884;28;1933;-54
2023/12/19 07:32:53;;;;;;;;;;;;;;;19.82;35.01;96556.09;10509254;28;1938;-53
2023/12/19 07:37:53;;;;;;;;;;;;;;;19.85;34.87;96546.88;10520571;28;1956;-53
2023/12/19 07:42:54;;;;;;;;;;;;;;;19.86;34.80;96537.94;10515982;28;1942;-54
2023/12/19 07:47:54;;;;;;;;;;;;;;;19.88;34.85;96517.44;10507925;28;3031;-54
2023/12/19 07:52:54;;;;;;;;;;;;;;;19.90;34.97;96507.47;10515738;28;2063;-54
2023/12/19 07:57:55;;;;;;;;;;;;;;;19.91;34.63;96504.56;10515889;28;2374;-52
2023/12/19 08:02:55;;;;;;;;;;;;;;;19.92;34.70;96505.38;10516088;28;1959;-54
2023/12/19 08:07:55;;;;;;;;;;;;;;;19.94;34.37;96519.88;10506198;28;2037;-54
2023/12/19 08:12:55;;;;;;;;;;;;;;;19.95;34.48;96518.81;10510748;28;2371;-53
2023/12/19 08:17:56;;;;;;;;;;;;;;;19.97;34.67;96526.47;10511360;28;2199;-54
2023/12/19 08:22:56;;;;;;;;;;;;;;;20.01;34.42;96522.31;10503396;28;1943;-52
2023/12/19 08:27:56;;;;;;;;;;;;;;;20.03;34.49;96513.09;10509933;28;1965;-55
2023/12/19 08:32:57;;;;;;;;;;;;;;;20.04;34.96;96519.16;10505614;28;2136;-51
2023/12/19 08:37:57;;;;;;;;;;;;;;;20.05;34.83;96510.22;10489459;28;2016;-53
2023/12/19 08:42:57;;;;;;;;;;;;;;;20.05;34.70;96505.72;10507080;28;5109;-53
2023/12/19 08:47:58;;;;;;;;;;;;;;;20.08;34.88;96512.34;10504106;28;3088;-54
2023/12/19 08:52:58;;;;;;;;;;;;;;;20.12;34.94;96506.31;10509547;28;2406;-54
2023/12/19 08:57:58;;;;;;;;;;;;;;;20.13;34.25;96502.63;10496181;28;1910;-53
2023/12/19 09:02:59;;;;;;;;;;;;;;;20.17;34.70;96502.94;10510691;28;1910;-55
2023/12/19 09:07:59;;;;;;;;;;;;;;;20.18;34.83;96512.41;10502827;28;1806;-53
2023/12/19 09:13:00;;;;;;;;;;;;;;;20.18;34.78;96513.22;10510946;28;1887;-55
2023/12/19 09:18:02;;;;;;;;;;;;;;;20.20;34.69;96507.72;10490409;28;1961;-53
2023/12/19 09:23:02;;;;;;;;;;;;;;;20.22;34.68;96505.63;10511799;28;2044;-54
2023/12/19 09:28:03;;;;;;;;;;;;;;;20.25;34.52;96502.50;10512413;28;2014;-54
2023/12/19 09:33:03;;;;;;;;;;;;;;;20.27;34.33;96489.88;10511454;28;1892;-55
2023/12/19 09:38:04;;;;;;;;;;;;;;;20.30;34.50;96494.63;10513129;28;2048;-54
2023/12/19 09:43:04;;;;;;;;;;;;;;;20.31;34.84;96485.69;10509319;28;2250;-55
2023/12/19 09:48:04;;;;;;;;;;;;;;;20.33;34.83;96485.44;10495280;28;3384;-53
2023/12/19 09:53:07;;;;;;;;;;;;;;;20.33;34.98;96470.44;10506906;28;2316;-54
2023/12/19 09:58:08;;;;;;;;;;;;;;;20.34;35.00;96472.00;10476199;28;1948;-55
2023/12/19 10:03:09;;;;;;;;;;;;;;;20.34;34.75;96461.47;10512126;28;2127;-56
2023/12/19 10:08:09;;;;;;;;;;;;;;;20.34;34.92;96453.56;10495676;28;2066;-52
2023/12/19 10:13:09;;;;;;;;;;;;;;;20.37;34.77;96445.19;10507018;28;2326;-52
2023/12/19 10:18:12;;;;;;;;;;;;;;;20.37;34.85;96437.28;10511624;28;1920;-53
2023/12/19 10:23:14;;;;;;;;;;;;;;;20.41;34.89;96434.91;10507125;28;2008;-56
2023/12/19 10:28:14;;;;;;;;;;;;;;;20.43;34.50;96412.56;10511464;28;1910;-54
2023/12/19 10:33:14;;;;;;;;;;;;;;;20.45;34.80;96404.38;10491198;28;1873;-55
2023/12/19 10:38:15;;;;;;;;;;;;;;;20.47;34.76;96403.09;10515165;28;2040;-54
2023/12/19 10:43:15;;;;;;;;;;;;;;;20.50;34.85;96392.06;10519837;28;5072;-53
2023/12/19 10:48:15;;;;;;;;;;;;;;;20.53;34.70;96380.19;10520126;28;2338;-52
2023/12/19 10:53:15;;;;;;;;;;;;;;;20.52;34.92;96361.00;10511705;28;1981;-54
2023/12/19 10:58:18;;;;;;;;;;;;;;;20.56;34.65;96354.16;10500268;28;2040;-53
2023/12/19 11:03:33;;;;;;;;;;;;;;;20.56;34.71;96338.34;10495315;28;1933;-53
2023/12/19 11:08:34;;;;;;;;;;;;;;;20.60;34.80;96322.81;10490067;28;2094;-56
2023/12/19 11:13:34;;;;;;;;;;;;;;;20.59;34.84;96322.00;10513045;28;1924;-53
2023/12/19 11:18:44;;;;;;;;;;;;;;;20.60;34.80;96305.16;10516185;28;2041;-54
2023/12/19 11:23:45;;;;;;;;;;;;;;;20.61;34.66;96284.91;10517065;28;2009;-53
2023/12/19 11:28:46;;;;;;;;;;;;;;;20.63;34.54;96280.94;10518856;28;2138;-54
2023/12/19 11:33:46;;;;;;;;;;;;;;;20.64;34.80;96265.91;10508927;28;1964;-53
2023/12/19 11:38:47;;;;;;;;;;;;;;;20.64;35.06;96261.44;10508830;28;1911;-53
2023/12/19 11:43:47;;;;;;;;;;;;;;;20.66;34.93;96248.81;10508410;28;5145;-55
2023/12/19 11:48:49;;;;;;;;;;;;;;;20.67;34.80;96236.44;10510621;28;3189;-55
2023/12/19 11:53:49;;;;;;;;;;;;;;;20.68;35.12;96222.19;10513368;28;2023;-55
2023/12/19 11:58:51;;;;;;;;;;;;;;;20.71;34.69;96219.81;10516288;28;2079;-54
2023/12/19 12:04:03;;;;;;;;;;;;;;;20.72;34.68;96204.81;10511090;28;2056;-54
2023/12/19 12:09:05;;;;;;;;;;;;;;;20.73;34.93;96204.53;10524586;28;1877;-55
2023/12/19 12:14:05;;;;;;;;;;;;;;;20.76;34.84;96196.13;10506091;28;1950;-54
2023/12/19 12:19:16;;;;;;;;;;;;;;;20.77;34.59;96191.66;10490600;28;1982;-53
2023/12/19 12:24:20;;;;;;;;;;;;;;;20.80;34.78;96197.19;10513906;28;2083;-54
2023/12/19 12:29:20;;;;;;;;;;;;;;;20.79;34.60;96187.66;10504363;28;2111;-53
2023/12/19 12:34:21;;;;;;;;;;;;;;;20.81;34.77;96192.69;10492922;28;1952;-52
2023/12/19 12:39:22;;;;;;;;;;;;;;;20.83;34.84;96175.59;10494822;28;1901;-53
2023/12/19 12:44:22;;;;;;;;;;;;;;;20.85;34.66;96160.28;10514191;28;5125;-53
2023/12/19 12:49:23;;;;;;;;;;;;;;;20.86;34.74;96169.78;10485787;28;3236;-53
2023/12/19 12:54:23;;;;;;;;;;;;;;;20.89;35.00;96152.63;10510988;28;2406;-53
2023/12/19 12:59:25;;;;;;;;;;;;;;;20.90;35.16;96144.47;10506264;28;2037;-54
2023/12/19 13:04:25;;;;;;;;;;;;;;;20.92;34.90;96137.09;10509040;28;2053;-52
2023/12/19 13:09:28;;;;;;;;;;;;;;;20.92;34.80;96131.81;10511958;28;2234;-52
2023/12/19 13:14:28;;;;;;;;;;;;;;;20.93;35.04;96120.22;10511285;28;1942;-53
2023/12/19 13:19:28;;;;;;;;;;;;;;;20.91;35.23;96109.16;10504449;28;2092;-56
2023/12/19 13:24:29;;;;;;;;;;;;;;;20.93;34.95;96096.50;10507169;28;2270;-52
2023/12/19 13:29:32;;;;;;;;;;;;;;;20.91;35.00;96089.94;10512976;28;1873;-51
2023/12/19 13:34:32;;;;;;;;;;;;;;;20.88;35.15;96090.44;10517028;28;1900;-53
2023/12/19 13:39:33;;;;;;;;;;;;;;;20.84;35.11;96092.84;10507642;28;1961;-54
2023/12/19 13:44:35;;;;;;;;;;;;;;;20.83;34.99;96093.09;10509494;28;4955;-55
2023/12/19 13:49:36;;;;;;;;;;;;;;;20.80;35.17;96075.97;10493109;28;3211;-53
2023/12/19 13:54:36;;;;;;;;;;;;;;;20.74;35.58;96066.50;10503033;28;1945;-49
2023/12/19 13:59:38;;;;;;;;;;;;;;;20.73;35.11;96069.41;10508365;28;1987;-49
2023/12/19 14:04:38;;;;;;;;;;;;;;;20.67;35.35;96060.72;10499280;28;2132;-51
2023/12/19 14:09:38;;;;;;;;;;;;;;;20.61;35.56;96056.50;10502589;28;2020;-52
2023/12/19 14:14:38;;;;;;;;;;;;;;;20.57;35.33;96062.56;10499700;28;2131;-53
2023/12/19 14:19:39;;;;;;;;;;;;;;;20.53;35.49;96049.16;10510658;28;2036;-55
2023/12/19 14:24:39;;;;;;;;;;;;;;;20.47;35.41;96049.41;10511089;28;2041;-54
2023/12/19 14:29:39;;;;;;;;;;;;;;;20.42;35.35;96047.59;10497263;28;1947;-54
2023/12/19 14:34:40;;;;;;;;;;;;;;;20.39;35.51;96036.78;10505652;28;1936;-55
2023/12/19 14:39:40;;;;;;;;;;;;;;;20.37;35.42;96034.44;10502244;28;2060;-55
2023/12/19 14:44:41;;;;;;;;;;;;;;;20.40;35.50;96036.56;10521835;28;5106;-54
2023/12/19 14:49:41;;;;;;;;;;;;;;;20.42;35.37;96025.75;10510895;28;3257;-54
2023/12/19 14:54:42;;;;;;;;;;;;;;;20.42;35.32;96026.53;10509449;28;2055;-53
2023/12/19 14:59:42;;;;;;;;;;;;;;;20.46;35.07;96024.94;10510877;28;1976;-55
2023/12/19 15:04:42;;;;;;;;;;;;;;;20.48;35.25;96030.75;10513667;28;2008;-55
2023/12/19 15:09:42;;;;;;;;;;;;;;;20.52;35.14;96028.34;10517948;28;1921;-55
2023/12/19 15:14:45;;;;;;;;;;;;;;;20.54;35.02;96019.13;10503092;28;2068;-56
2023/12/19 15:19:45;;;;;;;;;;;;;;;20.56;34.90;96009.13;10487968;28;1941;-53
2023/12/19 15:24:46;;;;;;;;;;;;;;;20.57;34.96;95997.53;10508260;28;1901;-54
2023/12/19 15:29:46;;;;;;;;;;;;;;;20.61;35.04;96006.47;10512728;28;1985;-52
2023/12/19 15:34:46;;;;;;;;;;;;;;;20.61;34.76;95992.53;10502389;28;2024;-55
2023/12/19 15:39:46;;;;;;;;;;;;;;;20.60;35.21;95997.00;10505052;28;2067;-52
2023/12/19 15:44:47;;;;;;;;;;;;;;;20.61;35.27;96003.84;10488840;28;4852;-55
2023/12/19 15:49:47;;;;;;;;;;;;;;;20.64;34.97;96005.94;10487182;28;2100;-48
2023/12/19 15:54:47;;;;;;;;;;;;;;;20.64;35.48;96005.16;10504209;28;1995;-54
2023/12/19 15:59:49;;;;;;;;;;;;;;;20.67;35.03;95992.22;10507507;28;2276;-54
2023/12/19 16:04:50;;;;;;;;;;;;;;;20.67;34.95;95992.22;10487486;28;2361;-54
2023/12/19 16:09:50;;;;;;;;;;;;;;;20.67;35.12;95996.72;10510656;28;1924;-53
2023/12/19 16:14:51;;;;;;;;;;;;;;;20.67;35.39;96000.13;10490606;28;1939;-54
2023/12/19 16:19:53;;;;;;;;;;;;;;;20.69;35.01;95984.84;10503873;28;2130;-52
2023/12/19 16:24:55;;;;;;;;;;;;;;;20.69;35.25;95974.31;10506820;28;2115;-49
2023/12/19 16:29:55;;;;;;;;;;;;;;;20.69;35.17;95963.00;10505452;28;2127;-53
2023/12/19 16:34:55;;;;;;;;;;;;;;;20.70;34.87;95967.19;10496204;28;2242;-51
2023/12/19 16:39:55;;;;;;;;;;;;;;;20.69;35.17;95958.50;10503279;28;1960;-55
2023/12/19 16:44:57;;;;;;;;;;;;;;;20.69;35.05;95955.09;10490366;28;5046;-54
2023/12/19 16:49:58;;;;;;;;;;;;;;;20.70;35.16;95944.28;10487879;28;1972;-51
2023/12/19 16:54:59;;;;;;;;;;;;;;;20.70;35.30;95931.13;10503793;28;1982;-53
2023/12/19 16:59:59;;;;;;;;;;;;;;;20.71;34.95;95924.78;10501704;28;2290;-55
2023/12/19 17:04:59;;;;;;;;;;;;;;;20.72;35.03;95923.72;10504785;28;1937;-55
2023/12/19 17:09:59;;;;;;;;;;;;;;;20.72;34.95;95922.94;10488680;28;1917;-54
2023/12/19 17:15:00;;;;;;;;;;;;;;;20.74;35.06;95934.00;10494939;28;1948;-53
2023/12/19 17:20:00;;;;;;;;;;;;;;;20.79;34.50;95933.97;10499098;28;1983;-52
2023/12/19 17:25:01;;;;;;;;;;;;;;;20.80;34.56;95925.00;10490331;28;2324;-54
2023/12/19 17:30:03;;;;;;;;;;;;;;;20.84;34.36;95905.75;10510245;28;1956;-53
2023/12/19 17:35:04;;;;;;;;;;;;;;;20.88;34.44;95911.25;10511029;28;1992;-52
2023/12/19 17:40:06;;;;;;;;;;;;;;;20.93;33.72;95900.72;10497168;28;1940;-54
2023/12/19 17:45:07;;;;;;;;;;;;;;;20.95;34.28;95894.13;10490215;28;4991;-54
2023/12/19 17:50:07;;;;;;;;;;;;;;;20.99;34.03;95895.16;10516099;28;1920;-53
2023/12/19 17:55:08;;;;;;;;;;;;;;;21.02;33.67;95891.97;10497223;28;1985;-53
2023/12/19 18:00:12;;;;;;;;;;;;;;;21.07;33.64;95888.53;10515493;28;1949;-54
2023/12/19 18:05:12;;;;;;;;;;;;;;;21.15;33.44;95884.53;10511783;28;2080;-53
2023/12/19 18:10:13;;;;;;;;;;;;;;;21.10;33.64;95895.91;10510682;28;2071;-52
2023/12/19 18:15:13;;;;;;;;;;;;;;;21.14;33.37;95889.03;10529448;28;1985;-52
2023/12/19 18:20:13;;;;;;;;;;;;;;;21.17;33.36;95885.84;10530408;28;1906;-51
2023/12/19 18:25:14;;;;;;;;;;;;;;;21.16;33.25;95870.31;10485125;28;1922;-52
2023/12/19 18:30:15;;;;;;;;;;;;;;;21.21;33.24;95859.69;10514660;28;2130;-52
2023/12/19 18:35:17;;;;;;;;;;;;;;;21.22;33.22;95863.94;10508655;28;2017;-53
2023/12/19 18:40:18;;;;;;;;;;;;;;;21.23;32.93;95857.56;10507117;28;1937;-53
2023/12/19 18:45:18;;;;;;;;;;;;;;;21.24;32.93;95852.06;10517992;28;5033;-54
2023/12/19 18:50:18;;;;;;;;;;;;;;;21.23;32.89;95836.50;10515173;28;2348;-55
2023/12/19 18:55:19;;;;;;;;;;;;;;;21.25;32.76;95821.19;10516740;28;1914;-54
2023/12/19 19:00:19;;;;;;;;;;;;;;;21.25;33.12;95823.81;10519996;28;1981;-52
2023/12/19 19:05:19;;;;;;;;;;;;;;;21.22;33.16;95817.28;10516749;28;2024;-54
2023/12/19 19:10:20;;;;;;;;;;;;;;;21.22;33.27;95811.19;10516091;28;1926;-54
2023/12/19 19:15:20;;;;;;;;;;;;;;;21.20;33.28;95802.78;10516301;28;2119;-53
2023/12/19 19:20:31;;;;;;;;;;;;;;;21.22;33.03;95809.34;10520463;28;1900;-53
2023/12/19 19:25:33;;;;;;;;;;;;;;;21.22;33.23;95803.28;10492541;28;2096;-53
2023/12/19 19:30:34;;;;;;;;;;;;;;;21.24;32.67;95793.25;10523017;28;2075;-52
2023/12/19 19:35:37;;;;;;;;;;;;;;;21.22;33.06;95790.13;10493676;28;1926;-55
2023/12/19 19:40:37;;;;;;;;;;;;;;;21.25;33.00;95781.63;10509624;28;2005;-55
2023/12/19 19:45:37;;;;;;;;;;;;;;;21.25;33.61;95774.53;10523321;28;5418;-55
2023/12/19 19:50:38;;;;;;;;;;;;;;;21.31;33.79;95762.88;10513821;28;1518;-51
2023/12/19 19:55:38;;;;;;;;;;;;;;;21.37;34.13;95763.63;10519490;28;1981;-52
2023/12/19 20:00:39;;;;;;;;;;;;;;;21.40;33.14;95747.22;10512780;28;1791;-53
2023/12/19 20:05:40;;;;;;;;;;;;;;;21.37;33.49;95747.81;10517407;28;1484;-53
2023/12/19 20:10:40;;;;;;;;;;;;;;;21.37;33.56;95729.34;10519537;28;1454;-53
2023/12/19 20:15:40;;;;;;;;;;;;;;;21.36;33.16;95733.03;10519563;28;1975;-51
2023/12/19 20:20:41;;;;;;;;;;;;;;;21.36;33.07;95730.41;10518824;28;1636;-55
2023/12/19 20:25:41;;;;;;;;;;;;;;;21.37;32.99;95730.09;10524494;28;1783;-52
2023/12/19 20:30:41;;;;;;;;;;;;;;;21.36;32.97;95715.38;10522917;28;1456;-55
2023/12/19 20:35:42;;;;;;;;;;;;;;;21.37;33.11;95705.63;10515818;28;1914;-55
2023/12/19 20:40:42;;;;;;;;;;;;;;;21.34;32.76;95692.97;10511478;28;5058;-54
2023/12/19 20:45:43;;;;;;;;;;;;;;;21.39;32.88;95692.94;10513006;28;2358;-53
2023/12/19 20:50:43;;;;;;;;;;;;;;;21.37;32.78;95710.88;10515898;28;1495;-51
2023/12/19 20:55:43;;;;;;;;;;;;;;;21.38;34.18;95701.91;10503561;28;2186;-53
2023/12/19 21:00:43;;;;;;;;;;;;;;;21.42;33.85;95695.00;10511828;28;2207;-51
2023/12/19 21:05:44;;;;;;;;;;;;;;;21.41;33.97;95698.72;10510497;28;1957;-52
2023/12/19 21:10:44;;;;;;;;;;;;;;;21.25;34.60;95687.53;10510833;28;2126;-55
2023/12/19 21:15:44;;;;;;;;;;;;;;;21.20;35.14;95692.84;10510349;28;2043;-54
2023/12/19 21:20:44;;;;;;;;;;;;;;;21.15;34.90;95702.66;10490150;28;1973;-55
2023/12/19 21:25:45;;;;;;;;;;;;;;;21.05;35.04;95693.78;10495481;28;2068;-55
2023/12/19 21:30:45;;;;;;;;;;;;;;;21.00;34.94;95704.34;10510986;28;2127;-54
2023/12/19 21:35:46;;;;;;;;;;;;;;;20.94;35.01;95720.44;10492083;28;2032;-51
2023/12/19 21:40:47;;;;;;;;;;;;;;;20.90;35.15;95722.88;10506527;28;5212;-53
2023/12/19 21:45:47;;;;;;;;;;;;;;;20.88;35.08;95719.72;10505463;28;2259;-52
2023/12/19 21:50:49;;;;;;;;;;;;;;;20.81;35.24;95729.78;10491562;28;2059;-54
2023/12/19 21:55:49;;;;;;;;;;;;;;;20.77;35.38;95731.38;10514316;28;2091;-52
2023/12/19 22:00:49;;;;;;;;;;;;;;;20.71;35.03;95739.63;10510114;28;2287;-53
2023/12/19 22:05:49;;;;;;;;;;;;;;;20.66;35.05;95737.81;10509073;28;1932;-52
2023/12/19 22:10:50;;;;;;;;;;;;;;;20.63;34.80;95740.97;10503887;28;2018;-51
2023/12/19 22:15:50;;;;;;;;;;;;;;;20.62;34.78;95751.78;10503341;28;1969;-48
2023/12/19 22:20:52;;;;;;;;;;;;;;;20.58;35.16;95761.28;10514241;28;1916;-54
2023/12/19 22:25:52;;;;;;;;;;;;;;;20.52;35.48;95757.91;10509767;28;1888;-52
2023/12/19 22:30:54;;;;;;;;;;;;;;;20.51;34.85;95745.78;10508373;28;1971;-52
2023/12/19 22:35:54;;;;;;;;;;;;;;;20.49;35.07;95742.66;10508171;28;2286;-52
2023/12/19 22:40:55;;;;;;;;;;;;;;;20.43;35.14;95743.75;10505429;28;5168;-53
2023/12/19 22:45:55;;;;;;;;;;;;;;;20.41;35.08;95737.97;10505801;28;2260;-53
2023/12/19 22:50:55;;;;;;;;;;;;;;;20.39;34.79;95732.19;10503146;28;1929;-53
2023/12/19 22:55:56;;;;;;;;;;;;;;;20.35;35.14;95723.25;10516304;28;1914;-52
2023/12/19 23:00:56;;;;;;;;;;;;;;;20.33;34.99;95714.03;10508653;28;2065;-54
2023/12/19 23:05:56;;;;;;;;;;;;;;;20.30;35.13;95704.06;10514925;28;2328;-58
2023/12/19 23:10:57;;;;;;;;;;;;;;;20.27;35.17;95686.97;10491663;28;1994;-59
2023/12/19 23:15:57;;;;;;;;;;;;;;;20.23;35.23;95680.69;10508924;28;2103;-52
2023/12/19 23:20:57;;;;;;;;;;;;;;;20.19;35.19;95672.56;10517740;28;2024;-50
2023/12/19 23:25:58;;;;;;;;;;;;;;;20.17;35.26;95671.97;10511754;28;1971;-53
2023/12/19 23:30:58;;;;;;;;;;;;;;;20.14;35.47;95663.84;10516346;28;2241;-52
2023/12/19 23:35:58;;;;;;;;;;;;;;;20.12;35.40;95644.91;10517402;28;2019;-54
2023/12/19 23:40:59;;;;;;;;;;;;;;;20.09;35.17;95646.25;10512879;28;5035;-52
2023/12/19 23:45:59;;;;;;;;;;;;;;;20.07;35.20;95637.06;10501691;28;2316;-52
2023/12/19 23:50:59;;;;;;;;;;;;;;;20.03;35.12;95631.53;10510761;28;1995;-51
2023/12/19 23:56:00;;;;;;;;;;;;;;;20.02;35.24;95629.19;10514079;28;1924;-54
